sensor_id;sensor_type;location;lat;lon;timestamp;P1;durP1;ratioP1;P2;durP2;ratioP2
37593;SDS011;23441;50.856;6.076;2024-03-06T00:00:03;10.88;;;7.72;;
37593;SDS011;23441;50.856;6.076;2024-03-06T00:02:49;8.45;;;6.75;;
37593;SDS011;23441;50.856;6.076;2024-03-06T00:05:35;9.77;;;6.63;;
37593;SDS011;23441;50.856;6.076;2024-03-06T00:08:21;11.82;;;6.90;;
37593;SDS011;23441;50.856;6.076;2024-03-06T00:11:07;9.88;;;6.78;;
37593;SDS011;23441;50.856;6.076;2024-03-06T00:13:53;7.60;;;6.22;;
37593;SDS011;23441;50.856;6.076;2024-03-06T00:16:39;9.88;;;5.55;;
37593;SDS011;23441;50.856;6.076;2024-03-06T00:19:25;9.82;;;5.95;;
37593;SDS011;23441;50.856;6.076;2024-03-06T00:22:11;7.75;;;5.43;;
37593;SDS011;23441;50.856;6.076;2024-03-06T00:24:57;13.02;;;5.28;;
37593;SDS011;23441;50.856;6.076;2024-03-06T00:27:43;7.75;;;5.20;;
37593;SDS011;23441;50.856;6.076;2024-03-06T00:30:28;8.10;;;4.70;;
37593;SDS011;23441;50.856;6.076;2024-03-06T00:33:14;7.75;;;5.20;;
37593;SDS011;23441;50.856;6.076;2024-03-06T00:36:00;11.35;;;4.72;;
37593;SDS011;23441;50.856;6.076;2024-03-06T00:38:46;9.40;;;4.43;;
37593;SDS011;23441;50.856;6.076;2024-03-06T00:41:33;6.53;;;3.90;;
37593;SDS011;23441;50.856;6.076;2024-03-06T00:44:20;8.48;;;3.80;;
37593;SDS011;23441;50.856;6.076;2024-03-06T00:47:06;6.82;;;3.50;;
37593;SDS011;23441;50.856;6.076;2024-03-06T00:49:52;4.97;;;3.72;;
37593;SDS011;23441;50.856;6.076;2024-03-06T00:52:37;6.35;;;3.70;;
37593;SDS011;23441;50.856;6.076;2024-03-06T00:55:23;6.20;;;3.53;;
37593;SDS011;23441;50.856;6.076;2024-03-06T00:58:09;4.50;;;3.50;;
37593;SDS011;23441;50.856;6.076;2024-03-06T01:00:56;6.70;;;4.07;;
37593;SDS011;23441;50.856;6.076;2024-03-06T01:03:43;6.43;;;3.95;;
37593;SDS011;23441;50.856;6.076;2024-03-06T01:06:29;7.80;;;4.45;;
37593;SDS011;23441;50.856;6.076;2024-03-06T01:09:15;6.32;;;3.90;;
37593;SDS011;23441;50.856;6.076;2024-03-06T01:12:01;11.77;;;5.57;;
37593;SDS011;23441;50.856;6.076;2024-03-06T01:14:47;4.60;;;3.67;;
37593;SDS011;23441;50.856;6.076;2024-03-06T01:17:33;6.50;;;3.40;;
37593;SDS011;23441;50.856;6.076;2024-03-06T01:20:20;5.20;;;4.00;;
37593;SDS011;23441;50.856;6.076;2024-03-06T01:23:06;6.30;;;3.53;;
37593;SDS011;23441;50.856;6.076;2024-03-06T01:25:52;5.07;;;3.67;;
37593;SDS011;23441;50.856;6.076;2024-03-06T01:28:38;6.65;;;3.88;;
37593;SDS011;23441;50.856;6.076;2024-03-06T01:31:24;6.93;;;3.97;;
37593;SDS011;23441;50.856;6.076;2024-03-06T01:34:10;4.22;;;3.10;;
37593;SDS011;23441;50.856;6.076;2024-03-06T01:36:56;8.55;;;3.70;;
37593;SDS011;23441;50.856;6.076;2024-03-06T01:39:42;5.63;;;3.53;;
37593;SDS011;23441;50.856;6.076;2024-03-06T01:42:28;5.70;;;3.45;;
37593;SDS011;23441;50.856;6.076;2024-03-06T01:45:15;4.63;;;3.25;;
37593;SDS011;23441;50.856;6.076;2024-03-06T01:48:00;7.22;;;3.30;;
37593;SDS011;23441;50.856;6.076;2024-03-06T01:50:47;5.82;;;3.15;;
37593;SDS011;23441;50.856;6.076;2024-03-06T01:53:33;5.05;;;3.33;;
37593;SDS011;23441;50.856;6.076;2024-03-06T01:56:20;4.00;;;2.97;;
37593;SDS011;23441;50.856;6.076;2024-03-06T01:59:06;4.50;;;3.33;;
37593;SDS011;23441;50.856;6.076;2024-03-06T02:01:52;5.40;;;3.20;;
37593;SDS011;23441;50.856;6.076;2024-03-06T02:04:39;7.85;;;2.88;;
37593;SDS011;23441;50.856;6.076;2024-03-06T02:07:25;5.20;;;3.05;;
37593;SDS011;23441;50.856;6.076;2024-03-06T02:10:11;6.57;;;2.80;;
37593;SDS011;23441;50.856;6.076;2024-03-06T02:12:57;5.63;;;3.08;;
37593;SDS011;23441;50.856;6.076;2024-03-06T02:15:47;4.15;;;2.95;;
37593;SDS011;23441;50.856;6.076;2024-03-06T02:18:34;17.00;;;7.07;;
37593;SDS011;23441;50.856;6.076;2024-03-06T02:21:20;7.82;;;3.72;;
37593;SDS011;23441;50.856;6.076;2024-03-06T02:24:10;5.43;;;3.17;;
37593;SDS011;23441;50.856;6.076;2024-03-06T02:26:57;6.07;;;3.20;;
37593;SDS011;23441;50.856;6.076;2024-03-06T02:29:43;5.28;;;2.95;;
37593;SDS011;23441;50.856;6.076;2024-03-06T02:32:29;4.88;;;3.47;;
37593;SDS011;23441;50.856;6.076;2024-03-06T02:35:16;5.10;;;2.85;;
37593;SDS011;23441;50.856;6.076;2024-03-06T02:38:03;5.57;;;3.00;;
37593;SDS011;23441;50.856;6.076;2024-03-06T02:40:52;5.43;;;2.72;;
37593;SDS011;23441;50.856;6.076;2024-03-06T02:43:39;5.65;;;3.00;;
37593;SDS011;23441;50.856;6.076;2024-03-06T02:46:25;4.70;;;2.75;;
37593;SDS011;23441;50.856;6.076;2024-03-06T02:49:11;3.40;;;3.03;;
37593;SDS011;23441;50.856;6.076;2024-03-06T02:51:57;3.70;;;3.15;;
37593;SDS011;23441;50.856;6.076;2024-03-06T02:54:43;5.07;;;3.10;;
37593;SDS011;23441;50.856;6.076;2024-03-06T02:57:29;8.20;;;4.28;;
37593;SDS011;23441;50.856;6.076;2024-03-06T03:00:15;5.57;;;3.60;;
37593;SDS011;23441;50.856;6.076;2024-03-06T03:03:01;5.40;;;2.92;;
37593;SDS011;23441;50.856;6.076;2024-03-06T03:05:47;5.00;;;2.70;;
37593;SDS011;23441;50.856;6.076;2024-03-06T03:08:34;4.22;;;2.75;;
37593;SDS011;23441;50.856;6.076;2024-03-06T03:11:25;5.28;;;2.92;;
37593;SDS011;23441;50.856;6.076;2024-03-06T03:14:11;3.58;;;2.80;;
37593;SDS011;23441;50.856;6.076;2024-03-06T03:16:58;3.65;;;2.83;;
37593;SDS011;23441;50.856;6.076;2024-03-06T03:19:45;6.28;;;2.92;;
37593;SDS011;23441;50.856;6.076;2024-03-06T03:22:31;4.47;;;2.80;;
37593;SDS011;23441;50.856;6.076;2024-03-06T03:25:18;6.38;;;2.83;;
37593;SDS011;23441;50.856;6.076;2024-03-06T03:28:04;5.55;;;2.80;;
37593;SDS011;23441;50.856;6.076;2024-03-06T03:30:50;6.43;;;2.92;;
37593;SDS011;23441;50.856;6.076;2024-03-06T03:33:39;6.47;;;2.70;;
37593;SDS011;23441;50.856;6.076;2024-03-06T03:36:26;3.38;;;2.67;;
37593;SDS011;23441;50.856;6.076;2024-03-06T03:39:12;5.30;;;3.10;;
37593;SDS011;23441;50.856;6.076;2024-03-06T03:42:01;6.97;;;3.22;;
37593;SDS011;23441;50.856;6.076;2024-03-06T03:44:47;5.03;;;2.90;;
37593;SDS011;23441;50.856;6.076;2024-03-06T03:47:33;4.60;;;3.38;;
37593;SDS011;23441;50.856;6.076;2024-03-06T03:50:19;3.95;;;2.88;;
37593;SDS011;23441;50.856;6.076;2024-03-06T03:53:05;6.53;;;3.15;;
37593;SDS011;23441;50.856;6.076;2024-03-06T03:55:51;3.15;;;2.83;;
37593;SDS011;23441;50.856;6.076;2024-03-06T03:58:37;5.90;;;3.15;;
37593;SDS011;23441;50.856;6.076;2024-03-06T04:01:23;6.93;;;2.78;;
37593;SDS011;23441;50.856;6.076;2024-03-06T04:04:10;6.90;;;3.40;;
37593;SDS011;23441;50.856;6.076;2024-03-06T04:06:56;4.68;;;3.25;;
37593;SDS011;23441;50.856;6.076;2024-03-06T04:09:44;6.95;;;3.85;;
37593;SDS011;23441;50.856;6.076;2024-03-06T04:12:32;7.32;;;3.78;;
37593;SDS011;23441;50.856;6.076;2024-03-06T04:15:18;9.02;;;3.80;;
37593;SDS011;23441;50.856;6.076;2024-03-06T04:18:04;6.30;;;3.83;;
37593;SDS011;23441;50.856;6.076;2024-03-06T04:20:50;7.00;;;3.63;;
37593;SDS011;23441;50.856;6.076;2024-03-06T04:23:36;6.30;;;3.83;;
37593;SDS011;23441;50.856;6.076;2024-03-06T04:26:22;4.53;;;3.33;;
37593;SDS011;23441;50.856;6.076;2024-03-06T04:29:08;7.00;;;3.72;;
37593;SDS011;23441;50.856;6.076;2024-03-06T04:31:54;7.65;;;3.65;;
37593;SDS011;23441;50.856;6.076;2024-03-06T04:34:40;6.18;;;3.22;;
37593;SDS011;23441;50.856;6.076;2024-03-06T04:37:26;5.90;;;3.42;;
37593;SDS011;23441;50.856;6.076;2024-03-06T04:40:12;6.65;;;4.00;;
37593;SDS011;23441;50.856;6.076;2024-03-06T04:43:00;10.23;;;4.47;;
37593;SDS011;23441;50.856;6.076;2024-03-06T04:45:46;7.25;;;3.90;;
37593;SDS011;23441;50.856;6.076;2024-03-06T04:48:32;5.10;;;3.47;;
37593;SDS011;23441;50.856;6.076;2024-03-06T04:51:18;8.77;;;3.83;;
37593;SDS011;23441;50.856;6.076;2024-03-06T04:54:07;6.68;;;3.83;;
37593;SDS011;23441;50.856;6.076;2024-03-06T04:56:54;5.45;;;3.50;;
37593;SDS011;23441;50.856;6.076;2024-03-06T04:59:40;4.63;;;3.33;;
37593;SDS011;23441;50.856;6.076;2024-03-06T05:02:26;6.50;;;4.25;;
37593;SDS011;23441;50.856;6.076;2024-03-06T05:05:12;6.47;;;4.20;;
37593;SDS011;23441;50.856;6.076;2024-03-06T05:07:58;7.38;;;3.78;;
37593;SDS011;23441;50.856;6.076;2024-03-06T05:10:44;5.75;;;3.67;;
37593;SDS011;23441;50.856;6.076;2024-03-06T05:13:29;7.93;;;4.13;;
37593;SDS011;23441;50.856;6.076;2024-03-06T05:16:16;5.60;;;3.78;;
37593;SDS011;23441;50.856;6.076;2024-03-06T05:19:03;5.93;;;3.67;;
37593;SDS011;23441;50.856;6.076;2024-03-06T05:21:50;8.15;;;4.00;;
37593;SDS011;23441;50.856;6.076;2024-03-06T05:24:37;6.40;;;3.75;;
37593;SDS011;23441;50.856;6.076;2024-03-06T05:27:23;6.30;;;3.47;;
37593;SDS011;23441;50.856;6.076;2024-03-06T05:30:09;8.60;;;3.92;;
37593;SDS011;23441;50.856;6.076;2024-03-06T05:32:56;7.88;;;3.90;;
37593;SDS011;23441;50.856;6.076;2024-03-06T05:35:42;7.20;;;3.78;;
37593;SDS011;23441;50.856;6.076;2024-03-06T05:38:28;8.07;;;4.40;;
37593;SDS011;23441;50.856;6.076;2024-03-06T05:41:14;5.80;;;3.87;;
37593;SDS011;23441;50.856;6.076;2024-03-06T05:44:00;7.60;;;3.85;;
37593;SDS011;23441;50.856;6.076;2024-03-06T05:46:46;5.90;;;4.28;;
37593;SDS011;23441;50.856;6.076;2024-03-06T05:49:32;5.82;;;4.10;;
37593;SDS011;23441;50.856;6.076;2024-03-06T05:52:18;7.03;;;4.03;;
37593;SDS011;23441;50.856;6.076;2024-03-06T05:55:05;6.63;;;4.10;;
37593;SDS011;23441;50.856;6.076;2024-03-06T05:57:51;7.78;;;4.35;;
37593;SDS011;23441;50.856;6.076;2024-03-06T06:00:38;5.25;;;3.60;;
37593;SDS011;23441;50.856;6.076;2024-03-06T06:03:24;7.82;;;4.38;;
37593;SDS011;23441;50.856;6.076;2024-03-06T06:06:10;6.88;;;4.07;;
37593;SDS011;23441;50.856;6.076;2024-03-06T06:08:56;5.90;;;4.05;;
37593;SDS011;23441;50.856;6.076;2024-03-06T06:11:42;6.82;;;4.25;;
37593;SDS011;23441;50.856;6.076;2024-03-06T06:14:29;11.15;;;5.30;;
37593;SDS011;23441;50.856;6.076;2024-03-06T06:17:15;10.75;;;5.40;;
37593;SDS011;23441;50.856;6.076;2024-03-06T06:20:01;12.85;;;5.93;;
37593;SDS011;23441;50.856;6.076;2024-03-06T06:22:47;9.52;;;5.40;;
37593;SDS011;23441;50.856;6.076;2024-03-06T06:25:33;10.98;;;6.07;;
37593;SDS011;23441;50.856;6.076;2024-03-06T06:28:19;12.63;;;5.63;;
37593;SDS011;23441;50.856;6.076;2024-03-06T06:31:04;9.63;;;5.20;;
37593;SDS011;23441;50.856;6.076;2024-03-06T06:33:50;15.88;;;5.78;;
37593;SDS011;23441;50.856;6.076;2024-03-06T06:36:37;11.52;;;6.00;;
37593;SDS011;23441;50.856;6.076;2024-03-06T06:39:23;13.30;;;6.03;;
37593;SDS011;23441;50.856;6.076;2024-03-06T06:42:09;13.88;;;6.70;;
37593;SDS011;23441;50.856;6.076;2024-03-06T06:44:56;15.20;;;7.30;;
37593;SDS011;23441;50.856;6.076;2024-03-06T06:47:42;10.20;;;6.00;;
37593;SDS011;23441;50.856;6.076;2024-03-06T06:50:28;13.63;;;7.38;;
37593;SDS011;23441;50.856;6.076;2024-03-06T06:53:14;24.05;;;8.63;;
37593;SDS011;23441;50.856;6.076;2024-03-06T06:56:01;16.02;;;8.73;;
37593;SDS011;23441;50.856;6.076;2024-03-06T06:58:47;14.40;;;8.25;;
37593;SDS011;23441;50.856;6.076;2024-03-06T07:01:33;15.70;;;8.95;;
37593;SDS011;23441;50.856;6.076;2024-03-06T07:04:19;17.60;;;9.35;;
37593;SDS011;23441;50.856;6.076;2024-03-06T07:07:05;17.35;;;9.27;;
37593;SDS011;23441;50.856;6.076;2024-03-06T07:09:51;19.60;;;9.63;;
37593;SDS011;23441;50.856;6.076;2024-03-06T07:12:37;15.40;;;8.68;;
37593;SDS011;23441;50.856;6.076;2024-03-06T07:15:23;12.18;;;7.55;;
37593;SDS011;23441;50.856;6.076;2024-03-06T07:18:10;10.35;;;7.03;;
37593;SDS011;23441;50.856;6.076;2024-03-06T07:20:56;10.25;;;6.05;;
37593;SDS011;23441;50.856;6.076;2024-03-06T07:23:42;10.10;;;6.15;;
37593;SDS011;23441;50.856;6.076;2024-03-06T07:26:28;10.45;;;6.10;;
37593;SDS011;23441;50.856;6.076;2024-03-06T07:29:15;13.32;;;6.60;;
37593;SDS011;23441;50.856;6.076;2024-03-06T07:32:01;15.90;;;7.38;;
37593;SDS011;23441;50.856;6.076;2024-03-06T07:34:47;12.43;;;6.30;;
37593;SDS011;23441;50.856;6.076;2024-03-06T07:37:33;13.93;;;6.22;;
37593;SDS011;23441;50.856;6.076;2024-03-06T07:40:19;8.93;;;5.55;;
37593;SDS011;23441;50.856;6.076;2024-03-06T07:43:05;9.50;;;5.72;;
37593;SDS011;23441;50.856;6.076;2024-03-06T07:45:51;7.95;;;5.07;;
37593;SDS011;23441;50.856;6.076;2024-03-06T07:48:37;7.88;;;4.82;;
37593;SDS011;23441;50.856;6.076;2024-03-06T07:51:23;8.82;;;5.07;;
37593;SDS011;23441;50.856;6.076;2024-03-06T07:54:09;9.02;;;5.47;;
37593;SDS011;23441;50.856;6.076;2024-03-06T07:56:55;10.27;;;5.22;;
37593;SDS011;23441;50.856;6.076;2024-03-06T07:59:41;8.27;;;5.20;;
37593;SDS011;23441;50.856;6.076;2024-03-06T08:02:27;8.00;;;4.97;;
37593;SDS011;23441;50.856;6.076;2024-03-06T08:05:13;7.80;;;5.00;;
37593;SDS011;23441;50.856;6.076;2024-03-06T08:07:59;8.88;;;5.30;;
37593;SDS011;23441;50.856;6.076;2024-03-06T08:10:45;8.95;;;5.05;;
37593;SDS011;23441;50.856;6.076;2024-03-06T08:13:31;7.97;;;4.60;;
37593;SDS011;23441;50.856;6.076;2024-03-06T08:16:17;6.10;;;4.63;;
37593;SDS011;23441;50.856;6.076;2024-03-06T08:19:03;5.53;;;4.32;;
37593;SDS011;23441;50.856;6.076;2024-03-06T08:21:49;6.85;;;4.25;;
37593;SDS011;23441;50.856;6.076;2024-03-06T08:24:35;8.27;;;4.43;;
37593;SDS011;23441;50.856;6.076;2024-03-06T08:27:21;11.60;;;4.93;;
37593;SDS011;23441;50.856;6.076;2024-03-06T08:30:07;6.72;;;4.70;;
37593;SDS011;23441;50.856;6.076;2024-03-06T08:32:54;6.80;;;4.60;;
37593;SDS011;23441;50.856;6.076;2024-03-06T08:35:40;6.57;;;4.50;;
37593;SDS011;23441;50.856;6.076;2024-03-06T08:38:26;10.88;;;5.22;;
37593;SDS011;23441;50.856;6.076;2024-03-06T08:41:11;8.13;;;4.82;;
37593;SDS011;23441;50.856;6.076;2024-03-06T08:43:57;7.50;;;4.30;;
37593;SDS011;23441;50.856;6.076;2024-03-06T08:46:43;6.60;;;4.80;;
37593;SDS011;23441;50.856;6.076;2024-03-06T08:49:29;5.70;;;4.25;;
37593;SDS011;23441;50.856;6.076;2024-03-06T08:52:15;9.13;;;5.07;;
37593;SDS011;23441;50.856;6.076;2024-03-06T08:55:01;15.50;;;5.20;;
37593;SDS011;23441;50.856;6.076;2024-03-06T08:57:51;5.40;;;4.07;;
37593;SDS011;23441;50.856;6.076;2024-03-06T09:00:38;5.75;;;4.15;;
37593;SDS011;23441;50.856;6.076;2024-03-06T09:03:24;6.55;;;3.70;;
37593;SDS011;23441;50.856;6.076;2024-03-06T09:06:10;8.25;;;3.72;;
37593;SDS011;23441;50.856;6.076;2024-03-06T09:08:58;5.60;;;3.72;;
37593;SDS011;23441;50.856;6.076;2024-03-06T09:11:44;6.00;;;3.92;;
37593;SDS011;23441;50.856;6.076;2024-03-06T09:14:30;7.97;;;4.18;;
37593;SDS011;23441;50.856;6.076;2024-03-06T09:17:19;5.97;;;4.38;;
37593;SDS011;23441;50.856;6.076;2024-03-06T09:20:05;9.88;;;5.57;;
37593;SDS011;23441;50.856;6.076;2024-03-06T09:22:55;5.55;;;4.07;;
37593;SDS011;23441;50.856;6.076;2024-03-06T09:25:42;7.20;;;4.60;;
37593;SDS011;23441;50.856;6.076;2024-03-06T09:28:28;8.27;;;5.07;;
37593;SDS011;23441;50.856;6.076;2024-03-06T09:31:14;9.13;;;4.70;;
37593;SDS011;23441;50.856;6.076;2024-03-06T09:34:00;8.65;;;4.60;;
37593;SDS011;23441;50.856;6.076;2024-03-06T09:36:47;8.02;;;4.53;;
37593;SDS011;23441;50.856;6.076;2024-03-06T09:39:34;9.57;;;5.30;;
37593;SDS011;23441;50.856;6.076;2024-03-06T09:42:20;7.65;;;4.50;;
37593;SDS011;23441;50.856;6.076;2024-03-06T09:45:07;7.90;;;3.95;;
37593;SDS011;23441;50.856;6.076;2024-03-06T09:47:54;5.90;;;4.40;;
37593;SDS011;23441;50.856;6.076;2024-03-06T09:50:41;6.05;;;4.55;;
37593;SDS011;23441;50.856;6.076;2024-03-06T09:53:30;8.68;;;4.85;;
37593;SDS011;23441;50.856;6.076;2024-03-06T09:56:16;7.22;;;4.75;;
37593;SDS011;23441;50.856;6.076;2024-03-06T09:59:04;6.80;;;4.43;;
37593;SDS011;23441;50.856;6.076;2024-03-06T10:01:53;7.45;;;4.63;;
37593;SDS011;23441;50.856;6.076;2024-03-06T10:04:41;10.95;;;5.25;;
37593;SDS011;23441;50.856;6.076;2024-03-06T10:07:27;6.25;;;4.50;;
37593;SDS011;23441;50.856;6.076;2024-03-06T10:10:13;6.07;;;4.32;;
37593;SDS011;23441;50.856;6.076;2024-03-06T10:13:01;6.30;;;5.20;;
37593;SDS011;23441;50.856;6.076;2024-03-06T10:16:03;6.95;;;4.28;;
37593;SDS011;23441;50.856;6.076;2024-03-06T10:18:54;5.88;;;4.38;;
37593;SDS011;23441;50.856;6.076;2024-03-06T10:21:39;9.40;;;4.22;;
37593;SDS011;23441;50.856;6.076;2024-03-06T10:24:26;6.75;;;3.70;;
37593;SDS011;23441;50.856;6.076;2024-03-06T10:27:16;6.07;;;4.00;;
37593;SDS011;23441;50.856;6.076;2024-03-06T10:30:05;6.82;;;3.78;;
37593;SDS011;23441;50.856;6.076;2024-03-06T10:32:56;8.00;;;3.72;;
37593;SDS011;23441;50.856;6.076;2024-03-06T10:35:44;6.90;;;3.97;;
37593;SDS011;23441;50.856;6.076;2024-03-06T10:38:32;4.97;;;3.45;;
37593;SDS011;23441;50.856;6.076;2024-03-06T10:41:25;5.68;;;3.92;;
37593;SDS011;23441;50.856;6.076;2024-03-06T10:44:17;7.35;;;3.83;;
37593;SDS011;23441;50.856;6.076;2024-03-06T10:47:09;5.47;;;3.90;;
37593;SDS011;23441;50.856;6.076;2024-03-06T10:49:55;3.63;;;3.30;;
37593;SDS011;23441;50.856;6.076;2024-03-06T10:52:45;5.45;;;4.25;;
37593;SDS011;23441;50.856;6.076;2024-03-06T10:55:32;5.07;;;3.67;;
37593;SDS011;23441;50.856;6.076;2024-03-06T10:58:20;5.63;;;3.38;;
37593;SDS011;23441;50.856;6.076;2024-03-06T11:01:06;5.28;;;3.08;;
37593;SDS011;23441;50.856;6.076;2024-03-06T11:03:54;5.35;;;4.05;;
37593;SDS011;23441;50.856;6.076;2024-03-06T11:06:41;10.50;;;3.50;;
37593;SDS011;23441;50.856;6.076;2024-03-06T11:09:27;6.88;;;3.47;;
37593;SDS011;23441;50.856;6.076;2024-03-06T11:12:36;5.32;;;3.33;;
37593;SDS011;23441;50.856;6.076;2024-03-06T11:15:24;5.65;;;3.60;;
37593;SDS011;23441;50.856;6.076;2024-03-06T11:24:20;6.15;;;3.35;;
37593;SDS011;23441;50.856;6.076;2024-03-06T11:27:07;3.22;;;2.92;;
37593;SDS011;23441;50.856;6.076;2024-03-06T11:30:08;5.18;;;2.92;;
37593;SDS011;23441;50.856;6.076;2024-03-06T11:32:59;4.50;;;2.80;;
37593;SDS011;23441;50.856;6.076;2024-03-06T11:41:49;3.25;;;2.42;;
37593;SDS011;23441;50.856;6.076;2024-03-06T11:44:36;4.72;;;2.80;;
37593;SDS011;23441;50.856;6.076;2024-03-06T11:47:22;3.60;;;2.78;;
37593;SDS011;23441;50.856;6.076;2024-03-06T11:50:08;3.63;;;3.22;;
37593;SDS011;23441;50.856;6.076;2024-03-06T11:52:54;25.30;;;9.85;;
37593;SDS011;23441;50.856;6.076;2024-03-06T11:55:41;4.95;;;2.88;;
37593;SDS011;23441;50.856;6.076;2024-03-06T11:58:28;3.20;;;2.40;;
37593;SDS011;23441;50.856;6.076;2024-03-06T12:01:14;3.30;;;2.58;;
37593;SDS011;23441;50.856;6.076;2024-03-06T12:04:00;4.85;;;3.08;;
37593;SDS011;23441;50.856;6.076;2024-03-06T12:06:47;3.17;;;1.90;;
37593;SDS011;23441;50.856;6.076;2024-03-06T12:09:33;3.58;;;2.25;;
37593;SDS011;23441;50.856;6.076;2024-03-06T12:12:20;4.60;;;2.42;;
37593;SDS011;23441;50.856;6.076;2024-03-06T12:15:06;7.22;;;3.60;;
37593;SDS011;23441;50.856;6.076;2024-03-06T12:17:55;6.40;;;3.42;;
37593;SDS011;23441;50.856;6.076;2024-03-06T12:20:41;6.60;;;3.70;;
37593;SDS011;23441;50.856;6.076;2024-03-06T12:23:30;7.07;;;4.30;;
37593;SDS011;23441;50.856;6.076;2024-03-06T12:26:16;4.80;;;4.10;;
37593;SDS011;23441;50.856;6.076;2024-03-06T12:29:08;5.25;;;4.13;;
37593;SDS011;23441;50.856;6.076;2024-03-06T12:31:55;13.70;;;4.55;;
37593;SDS011;23441;50.856;6.076;2024-03-06T12:34:42;6.32;;;4.22;;
37593;SDS011;23441;50.856;6.076;2024-03-06T12:37:29;6.20;;;4.00;;
37593;SDS011;23441;50.856;6.076;2024-03-06T12:40:16;5.43;;;3.63;;
37593;SDS011;23441;50.856;6.076;2024-03-06T12:43:02;4.93;;;3.72;;
37593;SDS011;23441;50.856;6.076;2024-03-06T12:45:49;5.88;;;4.30;;
37593;SDS011;23441;50.856;6.076;2024-03-06T12:48:35;8.57;;;4.15;;
37593;SDS011;23441;50.856;6.076;2024-03-06T12:51:21;7.20;;;3.80;;
37593;SDS011;23441;50.856;6.076;2024-03-06T12:54:07;5.50;;;3.75;;
37593;SDS011;23441;50.856;6.076;2024-03-06T12:56:54;5.78;;;4.10;;
37593;SDS011;23441;50.856;6.076;2024-03-06T12:59:40;4.93;;;3.55;;
37593;SDS011;23441;50.856;6.076;2024-03-06T13:02:26;5.38;;;3.30;;
37593;SDS011;23441;50.856;6.076;2024-03-06T13:05:12;7.85;;;4.35;;
37593;SDS011;23441;50.856;6.076;2024-03-06T13:07:58;5.50;;;4.03;;
37593;SDS011;23441;50.856;6.076;2024-03-06T13:10:45;5.50;;;3.90;;
37593;SDS011;23441;50.856;6.076;2024-03-06T13:13:31;5.60;;;4.13;;
37593;SDS011;23441;50.856;6.076;2024-03-06T13:16:19;5.55;;;4.00;;
37593;SDS011;23441;50.856;6.076;2024-03-06T13:19:05;5.90;;;3.95;;
37593;SDS011;23441;50.856;6.076;2024-03-06T13:21:51;5.57;;;4.10;;
37593;SDS011;23441;50.856;6.076;2024-03-06T13:24:37;5.70;;;4.07;;
37593;SDS011;23441;50.856;6.076;2024-03-06T13:27:24;6.13;;;4.13;;
37593;SDS011;23441;50.856;6.076;2024-03-06T13:30:10;5.65;;;4.00;;
37593;SDS011;23441;50.856;6.076;2024-03-06T13:32:58;7.25;;;4.07;;
37593;SDS011;23441;50.856;6.076;2024-03-06T13:35:44;5.05;;;3.70;;
37593;SDS011;23441;50.856;6.076;2024-03-06T13:38:30;6.07;;;3.78;;
37593;SDS011;23441;50.856;6.076;2024-03-06T13:41:16;5.97;;;4.05;;
37593;SDS011;23441;50.856;6.076;2024-03-06T13:44:02;5.10;;;3.58;;
37593;SDS011;23441;50.856;6.076;2024-03-06T13:46:48;5.22;;;3.83;;
37593;SDS011;23441;50.856;6.076;2024-03-06T13:52:26;6.30;;;4.03;;
37593;SDS011;23441;50.856;6.076;2024-03-06T13:55:12;5.20;;;4.00;;
37593;SDS011;23441;50.856;6.076;2024-03-06T13:57:58;7.25;;;4.40;;
37593;SDS011;23441;50.856;6.076;2024-03-06T14:00:44;6.80;;;4.65;;
37593;SDS011;23441;50.856;6.076;2024-03-06T14:03:30;7.22;;;4.63;;
37593;SDS011;23441;50.856;6.076;2024-03-06T14:06:19;6.35;;;4.18;;
37593;SDS011;23441;50.856;6.076;2024-03-06T14:09:05;8.10;;;4.13;;
37593;SDS011;23441;50.856;6.076;2024-03-06T14:11:53;5.45;;;4.32;;
37593;SDS011;23441;50.856;6.076;2024-03-06T14:14:39;7.18;;;4.65;;
37593;SDS011;23441;50.856;6.076;2024-03-06T14:17:25;6.70;;;4.45;;
37593;SDS011;23441;50.856;6.076;2024-03-06T14:20:11;6.68;;;4.45;;
37593;SDS011;23441;50.856;6.076;2024-03-06T14:23:03;6.03;;;4.53;;
37593;SDS011;23441;50.856;6.076;2024-03-06T14:25:49;6.25;;;4.10;;
37593;SDS011;23441;50.856;6.076;2024-03-06T14:28:35;5.03;;;4.28;;
37593;SDS011;23441;50.856;6.076;2024-03-06T14:31:21;7.22;;;4.90;;
37593;SDS011;23441;50.856;6.076;2024-03-06T14:34:07;5.95;;;4.63;;
37593;SDS011;23441;50.856;6.076;2024-03-06T14:36:53;7.82;;;4.65;;
37593;SDS011;23441;50.856;6.076;2024-03-06T14:39:40;4.90;;;4.07;;
37593;SDS011;23441;50.856;6.076;2024-03-06T14:42:26;6.38;;;4.20;;
37593;SDS011;23441;50.856;6.076;2024-03-06T14:45:12;8.50;;;4.20;;
37593;SDS011;23441;50.856;6.076;2024-03-06T14:47:58;6.95;;;4.35;;
37593;SDS011;23441;50.856;6.076;2024-03-06T14:50:44;5.45;;;4.20;;
37593;SDS011;23441;50.856;6.076;2024-03-06T14:53:30;6.63;;;4.60;;
37593;SDS011;23441;50.856;6.076;2024-03-06T14:56:16;7.90;;;4.60;;
37593;SDS011;23441;50.856;6.076;2024-03-06T14:59:03;5.45;;;3.97;;
37593;SDS011;23441;50.856;6.076;2024-03-06T15:01:49;7.30;;;3.90;;
37593;SDS011;23441;50.856;6.076;2024-03-06T15:04:36;6.07;;;4.00;;
37593;SDS011;23441;50.856;6.076;2024-03-06T15:07:22;6.72;;;4.43;;
37593;SDS011;23441;50.856;6.076;2024-03-06T15:10:08;6.95;;;3.90;;
37593;SDS011;23441;50.856;6.076;2024-03-06T15:12:54;7.03;;;4.22;;
37593;SDS011;23441;50.856;6.076;2024-03-06T15:15:40;7.25;;;4.13;;
37593;SDS011;23441;50.856;6.076;2024-03-06T15:18:26;5.60;;;3.90;;
37593;SDS011;23441;50.856;6.076;2024-03-06T15:21:12;4.65;;;3.70;;
37593;SDS011;23441;50.856;6.076;2024-03-06T15:23:58;5.07;;;3.75;;
37593;SDS011;23441;50.856;6.076;2024-03-06T15:26:44;5.10;;;4.10;;
37593;SDS011;23441;50.856;6.076;2024-03-06T15:29:30;7.35;;;4.82;;
37593;SDS011;23441;50.856;6.076;2024-03-06T15:32:16;5.47;;;4.55;;
37593;SDS011;23441;50.856;6.076;2024-03-06T15:35:02;5.72;;;4.60;;
37593;SDS011;23441;50.856;6.076;2024-03-06T15:37:49;7.28;;;4.72;;
37593;SDS011;23441;50.856;6.076;2024-03-06T15:40:35;6.05;;;4.60;;
37593;SDS011;23441;50.856;6.076;2024-03-06T15:43:21;6.22;;;4.20;;
37593;SDS011;23441;50.856;6.076;2024-03-06T15:46:07;7.60;;;4.80;;
37593;SDS011;23441;50.856;6.076;2024-03-06T15:48:53;7.50;;;6.00;;
37593;SDS011;23441;50.856;6.076;2024-03-06T15:51:39;7.82;;;5.53;;
37593;SDS011;23441;50.856;6.076;2024-03-06T15:54:25;9.57;;;5.50;;
37593;SDS011;23441;50.856;6.076;2024-03-06T15:57:11;9.48;;;6.05;;
37593;SDS011;23441;50.856;6.076;2024-03-06T15:59:58;7.47;;;5.45;;
37593;SDS011;23441;50.856;6.076;2024-03-06T16:02:43;5.82;;;5.18;;
37593;SDS011;23441;50.856;6.076;2024-03-06T16:05:29;8.13;;;5.60;;
37593;SDS011;23441;50.856;6.076;2024-03-06T16:08:16;6.00;;;5.35;;
37593;SDS011;23441;50.856;6.076;2024-03-06T16:11:02;12.25;;;5.45;;
37593;SDS011;23441;50.856;6.076;2024-03-06T16:13:48;8.32;;;5.57;;
37593;SDS011;23441;50.856;6.076;2024-03-06T16:16:33;5.97;;;4.90;;
37593;SDS011;23441;50.856;6.076;2024-03-06T16:19:20;7.28;;;5.35;;
37593;SDS011;23441;50.856;6.076;2024-03-06T16:22:06;5.47;;;4.70;;
37593;SDS011;23441;50.856;6.076;2024-03-06T16:24:52;6.68;;;5.30;;
37593;SDS011;23441;50.856;6.076;2024-03-06T16:27:38;5.50;;;4.85;;
37593;SDS011;23441;50.856;6.076;2024-03-06T16:30:24;8.60;;;5.07;;
37593;SDS011;23441;50.856;6.076;2024-03-06T16:33:09;6.60;;;4.90;;
37593;SDS011;23441;50.856;6.076;2024-03-06T16:35:55;8.63;;;4.60;;
37593;SDS011;23441;50.856;6.076;2024-03-06T16:38:41;6.63;;;5.22;;
37593;SDS011;23441;50.856;6.076;2024-03-06T16:41:27;6.60;;;5.15;;
37593;SDS011;23441;50.856;6.076;2024-03-06T16:44:13;8.85;;;5.50;;
37593;SDS011;23441;50.856;6.076;2024-03-06T16:46:59;6.07;;;5.20;;
37593;SDS011;23441;50.856;6.076;2024-03-06T16:49:45;9.13;;;5.35;;
37593;SDS011;23441;50.856;6.076;2024-03-06T16:52:31;7.03;;;5.20;;
37593;SDS011;23441;50.856;6.076;2024-03-06T16:55:17;7.70;;;5.28;;